Time;durP1;ratioP1;P1;durP2;ratioP2;P2;SDS_P1;SDS_P2;PMS_P1;PMS_P2;Temp;Humidity;BMP_temperature;BMP_pressure;BME280_temperature;BME280_humidity;BME280_pressure;Samples;Min_cycle;Max_cycle;Signal;HPM_P1;HPM_P2
2022/02/25 00:00:45;;;;;;;15.45;1.95;;;3.30;99.90;;;;;;5049671;28;20099;-60
2022/02/25 00:03:13;;;;;;;19.27;2.13;;;3.30;99.90;;;;;;5046366;28;20047;-56
2022/02/25 00:05:39;;;;;;;8.07;2.15;;;3.40;99.90;;;;;;5050113;28;20102;-51
2022/02/25 00:08:05;;;;;;;15.23;2.53;;;3.40;99.90;;;;;;5049990;28;20131;-56
2022/02/25 00:10:31;;;;;;;7.22;0.98;;;3.50;99.90;;;;;;5068528;28;20116;-54
2022/02/25 00:12:57;;;;;;;4.63;0.65;;;3.50;99.90;;;;;;5067943;28;20359;-50
2022/02/25 00:15:23;;;;;;;5.70;1.13;;;3.60;99.90;;;;;;5068351;28;20044;-51
2022/02/25 00:17:49;;;;;;;12.95;1.90;;;3.70;99.90;;;;;;5049589;28;20033;-52
2022/02/25 00:20:15;;;;;;;16.75;1.83;;;3.70;99.90;;;;;;5049938;28;20044;-58
2022/02/25 00:22:43;;;;;;;5.05;1.45;;;3.70;99.90;;;;;;5067572;28;20044;-56
2022/02/25 00:25:10;;;;;;;18.38;2.78;;;3.70;99.90;;;;;;5067259;28;20068;-58
2022/02/25 00:27:41;;;;;;;12.68;2.05;;;3.80;99.90;;;;;;5069037;28;20044;-57
2022/02/25 00:30:09;;;;;;;16.17;1.75;;;3.70;99.90;;;;;;5046043;28;20043;-56
2022/02/25 00:32:35;;;;;;;19.48;2.70;;;3.70;99.90;;;;;;5062115;28;20039;-61
2022/02/25 00:35:01;;;;;;;5.60;0.80;;;3.70;99.90;;;;;;5066369;28;20119;-51
2022/02/25 00:37:27;;;;;;;6.55;1.40;;;3.70;99.90;;;;;;5047113;28;20070;-54
2022/02/25 00:39:53;;;;;;;5.50;1.25;;;3.80;99.90;;;;;;5046085;28;20041;-57
2022/02/25 00:42:20;;;;;;;1.02;0.75;;;3.90;99.90;;;;;;5049207;28;20040;-49
2022/02/25 00:44:46;;;;;;;26.55;2.80;;;3.90;99.90;;;;;;5049969;28;20440;-51
2022/02/25 00:47:12;;;;;;;18.15;2.50;;;3.90;99.90;;;;;;5065791;28;20040;-65
2022/02/25 00:49:38;;;;;;;10.95;1.38;;;3.90;99.90;;;;;;5067636;28;20045;-60
2022/02/25 00:52:04;;;;;;;15.35;2.40;;;3.90;99.90;;;;;;5048840;28;20048;-56
2022/02/25 00:54:30;;;;;;;22.65;1.85;;;4.00;99.90;;;;;;5046411;28;20052;-55
2022/02/25 00:56:55;;;;;;;15.18;1.90;;;4.00;99.90;;;;;;5046626;28;20380;-52
2022/02/25 00:59:21;;;;;;;29.10;2.38;;;4.00;99.90;;;;;;5032427;28;20121;-61
2022/02/25 01:01:47;;;;;;;15.63;1.63;;;4.00;99.90;;;;;;5047910;28;20053;-56
2022/02/25 01:04:14;;;;;;;16.05;2.15;;;4.00;99.90;;;;;;5029017;28;20057;-60
2022/02/25 01:06:40;;;;;;;29.08;2.60;;;4.00;99.90;;;;;;5064993;28;20044;-54
2022/02/25 01:09:06;;;;;;;12.27;1.88;;;4.00;99.90;;;;;;5066641;28;20086;-52
2022/02/25 01:11:31;;;;;;;6.03;1.42;;;4.00;99.90;;;;;;5016205;28;20032;-57
2022/02/25 01:13:57;;;;;;;13.30;0.98;;;4.00;99.90;;;;;;5063676;28;20041;-49
2022/02/25 01:16:23;;;;;;;2.92;1.10;;;4.10;99.90;;;;;;5049190;28;20457;-57
2022/02/25 01:18:49;;;;;;;4.88;0.75;;;4.20;99.90;;;;;;5049160;28;20097;-64
2022/02/25 01:21:15;;;;;;;15.95;1.80;;;4.20;99.90;;;;;;5049110;28;20063;-56
2022/02/25 01:23:40;;;;;;;6.32;1.08;;;4.20;99.90;;;;;;5067756;28;20075;-59
2022/02/25 01:26:07;;;;;;;10.43;1.27;;;4.20;99.90;;;;;;5057802;28;20041;-54
2022/02/25 01:28:34;;;;;;;13.80;1.58;;;4.20;99.90;;;;;;5067516;28;20055;-59
2022/02/25 01:31:01;;;;;;;2.30;0.55;;;4.20;99.90;;;;;;5048246;28;20414;-49
2022/02/25 01:33:27;;;;;;;15.88;1.95;;;4.20;99.90;;;;;;5045543;28;20040;-60
2022/02/25 01:35:53;;;;;;;9.50;1.80;;;4.20;99.90;;;;;;5035210;28;20057;-53
2022/02/25 01:38:19;;;;;;;11.00;1.63;;;4.20;99.90;;;;;;5028461;28;20045;-54
2022/02/25 01:40:45;;;;;;;0.43;0.20;;;4.20;99.90;;;;;;5043037;28;20073;-52
2022/02/25 01:43:11;;;;;;;10.13;1.55;;;4.20;99.90;;;;;;5035119;28;20118;-55
2022/02/25 01:45:37;;;;;;;10.45;1.73;;;4.20;99.90;;;;;;5047077;28;20071;-59
2022/02/25 01:48:04;;;;;;;9.13;1.23;;;4.10;99.90;;;;;;5065656;28;20387;-52
2022/02/25 01:50:31;;;;;;;18.33;2.47;;;4.10;99.90;;;;;;5044296;28;20489;-52
2022/02/25 01:53:06;;;;;;;8.82;1.38;;;4.20;99.90;;;;;;5035181;28;20448;-56
2022/02/25 01:55:34;;;;;;;8.30;1.42;;;4.20;99.90;;;;;;5046400;28;20036;-50
2022/02/25 01:58:01;;;;;;;5.68;0.82;;;4.20;99.90;;;;;;5045280;28;20166;-52
2022/02/25 02:00:27;;;;;;;4.18;0.75;;;4.30;99.90;;;;;;5026140;28;20084;-54
2022/02/25 02:02:53;;;;;;;15.63;2.05;;;4.40;99.90;;;;;;5066250;28;20080;-61
2022/02/25 02:05:20;;;;;;;19.35;2.05;;;4.50;99.90;;;;;;5065948;28;20434;-52
2022/02/25 02:07:45;;;;;;;9.18;1.70;;;4.50;99.90;;;;;;5067113;28;20063;-59
2022/02/25 02:10:12;;;;;;;2.30;0.75;;;4.50;99.90;;;;;;5031394;28;20041;-52
2022/02/25 02:12:38;;;;;;;16.73;2.47;;;4.50;99.90;;;;;;5066529;28;20063;-60
2022/02/25 02:15:04;;;;;;;13.20;1.52;;;4.60;99.90;;;;;;5055887;28;20511;-52
2022/02/25 02:17:34;;;;;;;12.43;1.38;;;4.50;99.90;;;;;;5045455;28;20044;-61
2022/02/25 02:20:01;;;;;;;7.95;1.17;;;4.50;99.90;;;;;;5046042;28;20036;-60
2022/02/25 02:22:27;;;;;;;8.55;1.48;;;4.50;99.90;;;;;;5027717;28;20064;-53
2022/02/25 02:24:54;;;;;;;21.08;2.95;;;4.50;99.90;;;;;;5045314;28;20083;-55
2022/02/25 02:28:17;;;;;;;11.43;1.92;;;4.50;99.90;;;;;;5028472;28;20047;-50
2022/02/25 02:30:13;;;;;;;5.80;1.48;;;4.50;99.90;;;;;;5032385;28;20059;-61
2022/02/25 02:32:39;;;;;;;17.15;2.38;;;4.50;99.90;;;;;;5012211;28;20080;-49
2022/02/25 02:35:06;;;;;;;19.35;2.42;;;4.50;99.90;;;;;;5026813;28;20553;-56
2022/02/25 02:37:32;;;;;;;13.15;1.60;;;4.40;99.90;;;;;;5046212;28;20033;-58
2022/02/25 02:39:57;;;;;;;13.70;2.17;;;4.40;99.90;;;;;;5007273;28;20111;-53
2022/02/25 02:42:23;;;;;;;15.55;2.05;;;4.20;99.90;;;;;;5018748;28;20044;-49
2022/02/25 02:44:49;;;;;;;14.55;1.92;;;4.20;99.90;;;;;;5026523;28;20061;-53
2022/02/25 02:47:15;;;;;;;22.10;2.40;;;4.20;99.90;;;;;;5045214;28;20052;-58
2022/02/25 02:49:40;;;;;;;15.43;2.85;;;4.20;99.90;;;;;;5008487;28;20124;-64
2022/02/25 02:52:07;;;;;;;14.48;1.63;;;4.20;99.90;;;;;;5023538;28;20095;-52
2022/02/25 02:54:32;;;;;;;13.45;1.85;;;4.20;99.90;;;;;;5000957;28;20053;-57
2022/02/25 02:56:58;;;;;;;7.90;1.25;;;4.30;99.90;;;;;;5029912;28;20052;-59
2022/02/25 02:59:24;;;;;;;27.65;2.83;;;4.30;99.90;;;;;;5052414;28;20439;-60
2022/02/25 03:01:50;;;;;;;14.55;1.63;;;4.30;99.90;;;;;;5051784;28;20041;-53
2022/02/25 03:04:16;;;;;;;11.73;1.65;;;4.30;99.90;;;;;;5031078;28;20518;-56
2022/02/25 03:06:42;;;;;;;16.13;1.92;;;4.30;99.90;;;;;;5025806;28;20046;-56
2022/02/25 03:09:07;;;;;;;18.38;2.75;;;4.20;99.90;;;;;;5051167;28;20098;-60
2022/02/25 03:11:34;;;;;;;11.30;1.77;;;4.20;99.90;;;;;;5031577;28;20045;-53
2022/02/25 03:14:00;;;;;;;5.15;0.93;;;4.10;99.90;;;;;;5024815;28;20129;-66
2022/02/25 03:16:25;;;;;;;7.63;1.73;;;4.00;99.90;;;;;;5051382;28;20119;-54
2022/02/25 03:18:51;;;;;;;19.17;3.03;;;3.90;99.90;;;;;;5026043;28;20041;-54
2022/02/25 03:21:17;;;;;;;14.63;2.22;;;3.90;99.90;;;;;;5070072;28;20094;-59
2022/02/25 03:23:43;;;;;;;18.30;2.15;;;3.90;99.90;;;;;;5037396;28;20051;-51
2022/02/25 03:26:12;;;;;;;18.92;2.85;;;3.90;99.90;;;;;;5021104;28;20044;-57
2022/02/25 03:28:37;;;;;;;13.80;1.92;;;3.80;99.90;;;;;;5072174;28;20048;-61
2022/02/25 03:31:03;;;;;;;13.40;1.15;;;3.80;99.90;;;;;;5071200;28;20500;-59
2022/02/25 03:33:29;;;;;;;10.18;1.85;;;3.70;99.90;;;;;;5051108;28;20049;-59
2022/02/25 03:35:55;;;;;;;13.38;1.80;;;3.70;99.90;;;;;;5046422;28;20040;-53
2022/02/25 03:38:22;;;;;;;18.90;2.92;;;3.70;99.90;;;;;;5050764;28;20087;-54
2022/02/25 03:40:50;;;;;;;10.45;1.58;;;3.60;99.90;;;;;;5068352;28;20048;-53
2022/02/25 03:43:16;;;;;;;13.65;1.88;;;3.60;99.90;;;;;;5053518;28;20043;-52
2022/02/25 03:45:41;;;;;;;11.38;1.60;;;3.60;99.90;;;;;;5072270;28;20040;-52
2022/02/25 03:48:07;;;;;;;19.52;2.08;;;3.70;99.90;;;;;;5034552;28;20052;-59
2022/02/25 03:50:33;;;;;;;19.98;2.28;;;3.70;99.90;;;;;;5072128;28;20509;-62
2022/02/25 03:53:00;;;;;;;11.27;2.17;;;3.60;99.90;;;;;;5033698;28;20052;-54
2022/02/25 03:55:26;;;;;;;8.05;1.35;;;3.60;99.90;;;;;;5071681;28;20063;-50
2022/02/25 03:57:53;;;;;;;7.55;0.82;;;3.60;99.90;;;;;;5071432;28;20036;-52
2022/02/25 04:00:18;;;;;;;4.20;0.60;;;3.60;99.90;;;;;;5071422;28;20049;-58
2022/02/25 04:02:44;;;;;;;9.77;2.03;;;3.70;99.90;;;;;;5050225;28;20037;-48
2022/02/25 04:05:10;;;;;;;8.93;1.27;;;3.70;99.90;;;;;;5048281;28;20090;-52
2022/02/25 04:07:41;;;;;;;11.32;1.60;;;3.60;99.90;;;;;;5070610;28;20037;-51
2022/02/25 04:10:08;;;;;;;6.57;0.90;;;3.60;99.90;;;;;;5067350;28;20032;-57
2022/02/25 04:12:35;;;;;;;18.95;1.75;;;3.60;99.90;;;;;;5050394;28;20483;-60
2022/02/25 04:15:01;;;;;;;14.55;1.60;;;3.60;99.90;;;;;;5067652;28;20639;-52
2022/02/25 04:17:26;;;;;;;19.13;2.33;;;3.50;99.90;;;;;;5047849;28;20044;-54
2022/02/25 04:19:52;;;;;;;16.52;2.30;;;3.50;99.90;;;;;;5068465;28;20269;-50
2022/02/25 04:22:18;;;;;;;9.38;1.25;;;3.50;99.90;;;;;;5068046;28;20044;-55
2022/02/25 04:24:44;;;;;;;23.65;2.92;;;3.40;99.90;;;;;;5068786;28;20037;-55
2022/02/25 04:27:10;;;;;;;21.05;2.90;;;3.50;99.90;;;;;;5067491;28;20048;-58
2022/02/25 04:29:35;;;;;;;14.35;1.83;;;3.50;99.90;;;;;;5068928;28;20044;-50
2022/02/25 04:32:01;;;;;;;21.00;2.28;;;3.60;99.90;;;;;;5067194;28;20055;-59
2022/02/25 04:34:27;;;;;;;14.80;2.30;;;3.60;99.90;;;;;;5068364;28;20047;-56
2022/02/25 04:36:53;;;;;;;13.25;1.80;;;3.60;99.90;;;;;;5067794;28;20075;-62
2022/02/25 04:39:18;;;;;;;15.90;1.83;;;3.70;99.90;;;;;;5068044;28;20133;-51
2022/02/25 04:41:44;;;;;;;16.98;2.22;;;3.70;99.90;;;;;;5048346;28;20045;-48
2022/02/25 04:44:10;;;;;;;12.55;1.85;;;3.70;99.90;;;;;;5067216;28;20435;-51
2022/02/25 04:46:39;;;;;;;23.20;2.65;;;3.80;99.90;;;;;;5049956;28;20063;-51
2022/02/25 04:49:05;;;;;;;5.20;1.20;;;3.70;99.90;;;;;;5067207;28;20049;-63
2022/02/25 04:51:30;;;;;;;18.20;2.05;;;3.70;99.90;;;;;;5067936;28;20048;-50
2022/02/25 04:53:56;;;;;;;9.55;1.33;;;3.70;99.90;;;;;;5045259;28;20729;-57
2022/02/25 04:56:23;;;;;;;15.90;1.70;;;3.70;99.90;;;;;;5061433;28;20036;-57
2022/02/25 04:58:49;;;;;;;21.52;1.98;;;3.80;99.90;;;;;;5067344;28;20063;-62
2022/02/25 05:01:15;;;;;;;11.57;1.88;;;3.70;99.90;;;;;;5067517;28;20045;-51
2022/02/25 05:03:41;;;;;;;9.48;1.42;;;3.60;99.90;;;;;;5066668;28;20364;-57
2022/02/25 05:06:07;;;;;;;10.68;2.13;;;3.60;99.90;;;;;;5048910;28;20124;-51
2022/02/25 05:08:33;;;;;;;15.02;2.55;;;3.60;99.90;;;;;;5067521;28;20957;-54
2022/02/25 05:10:59;;;;;;;14.48;2.22;;;3.60;99.90;;;;;;5049063;28;20429;-58
2022/02/25 05:13:26;;;;;;;8.25;1.90;;;3.60;99.90;;;;;;5049063;28;20095;-58
2022/02/25 05:21:22;;;;;;;14.25;2.00;;;3.60;99.90;;;;;;5050368;28;20489;-57
2022/02/25 05:23:48;;;;;;;19.98;2.67;;;3.60;99.90;;;;;;5057550;28;20459;-58
2022/02/25 05:26:22;;;;;;;23.83;3.42;;;3.60;99.90;;;;;;5053705;28;20049;-56
2022/02/25 05:28:48;;;;;;;10.48;2.00;;;3.60;99.90;;;;;;5048735;28;20053;-53
2022/02/25 05:31:15;;;;;;;19.35;2.50;;;3.60;99.90;;;;;;5050184;28;20048;-66
2022/02/25 05:33:42;;;;;;;10.55;1.88;;;3.70;99.90;;;;;;5053511;28;20055;-62
2022/02/25 05:36:08;;;;;;;23.50;2.78;;;3.70;99.90;;;;;;5048550;28;20456;-59
2022/02/25 05:38:34;;;;;;;22.65;3.38;;;3.80;99.90;;;;;;5028606;28;20033;-51
2022/02/25 05:40:59;;;;;;;18.92;3.65;;;3.80;99.90;;;;;;5016814;28;20445;-62
2022/02/25 05:43:25;;;;;;;5.18;0.90;;;3.80;99.90;;;;;;5054598;28;20049;-57
2022/02/25 05:45:51;;;;;;;14.20;2.75;;;3.90;99.90;;;;;;5037031;28;20565;-57
2022/02/25 05:48:17;;;;;;;20.98;3.30;;;3.90;99.90;;;;;;5015586;28;20538;-59
2022/02/25 05:50:42;;;;;;;21.80;2.97;;;4.00;99.90;;;;;;5052731;28;20094;-49
2022/02/25 05:53:08;;;;;;;10.30;1.70;;;4.10;99.90;;;;;;5035501;28;20050;-54
2022/02/25 05:55:34;;;;;;;12.40;1.75;;;4.10;99.90;;;;;;5019841;28;20548;-60
2022/02/25 05:58:00;;;;;;;20.45;2.55;;;4.10;99.90;;;;;;5017706;28;20044;-51
2022/02/25 06:00:25;;;;;;;14.20;2.58;;;4.10;99.90;;;;;;5012909;28;20036;-58
2022/02/25 06:02:51;;;;;;;21.77;3.15;;;4.10;99.90;;;;;;5030609;28;20052;-57
2022/02/25 06:05:22;;;;;;;17.40;2.22;;;4.10;99.90;;;;;;5032076;28;20040;-65
2022/02/25 06:07:48;;;;;;;;;;;4.20;99.90;;;;;;5055125;28;20040;-56
2022/02/25 06:10:14;;;;;;;4.55;1.33;;;4.10;99.90;;;;;;5050924;28;20295;-57
2022/02/25 06:12:40;;;;;;;7.53;1.20;;;4.20;99.90;;;;;;5008424;28;20582;-47
2022/02/25 06:15:07;;;;;;;9.23;1.40;;;4.30;99.90;;;;;;5017269;28;20081;-58
2022/02/25 06:17:33;;;;;;;12.15;1.30;;;4.30;99.90;;;;;;5066788;28;20036;-62
2022/02/25 06:19:59;;;;;;;13.60;1.65;;;4.30;99.90;;;;;;5047832;28;20045;-58
2022/02/25 06:22:25;;;;;;;12.30;1.38;;;4.30;99.90;;;;;;5028448;28;20047;-59
2022/02/25 06:24:50;;;;;;;6.00;1.20;;;4.30;99.90;;;;;;5044152;28;20041;-54
2022/02/25 06:27:16;;;;;;;12.07;1.58;;;4.30;99.90;;;;;;5058015;28;20048;-59
2022/02/25 06:29:42;;;;;;;5.45;1.00;;;4.20;99.90;;;;;;5049055;28;20490;-52
2022/02/25 06:32:08;;;;;;;7.80;1.48;;;4.20;99.90;;;;;;5044397;28;20596;-58
2022/02/25 06:34:33;;;;;;;4.47;0.90;;;4.10;99.90;;;;;;5061570;28;20041;-53
2022/02/25 06:36:59;;;;;;;7.47;0.88;;;4.10;99.90;;;;;;5028253;28;20051;-51
2022/02/25 06:39:25;;;;;;;23.52;4.05;;;4.00;99.90;;;;;;5061095;28;20086;-58
2022/02/25 06:41:51;;;;;;;4.20;1.13;;;4.00;99.90;;;;;;5044290;28;20086;-59
2022/02/25 06:44:16;;;;;;;2.60;0.75;;;4.00;99.90;;;;;;5040104;28;20040;-51
2022/02/25 06:46:42;;;;;;;5.72;0.88;;;4.00;99.90;;;;;;5030074;28;20518;-54
2022/02/25 06:49:08;;;;;;;5.85;0.70;;;3.90;99.90;;;;;;5053764;28;20082;-54
2022/02/25 06:51:34;;;;;;;3.05;0.68;;;3.90;99.90;;;;;;5049893;28;20049;-51
2022/02/25 06:54:00;;;;;;;7.03;1.20;;;3.90;99.90;;;;;;5047757;28;20494;-56
2022/02/25 06:56:26;;;;;;;8.65;2.30;;;3.90;99.90;;;;;;5055406;28;20036;-52
2022/02/25 06:58:52;;;;;;;6.72;1.30;;;3.90;99.90;;;;;;5047450;28;20528;-59
2022/02/25 07:01:17;;;;;;;5.57;0.70;;;3.90;99.90;;;;;;5048219;28;20034;-61
2022/02/25 07:03:43;;;;;;;4.40;1.13;;;3.90;99.90;;;;;;5048875;28;20655;-55
2022/02/25 07:06:15;;;;;;;3.55;0.90;;;3.90;99.90;;;;;;5065421;28;20124;-59
2022/02/25 07:08:41;;;;;;;1.75;0.80;;;3.90;99.90;;;;;;5064863;28;20143;-57
2022/02/25 07:11:06;;;;;;;8.25;1.13;;;3.90;99.90;;;;;;5047300;28;20036;-56
2022/02/25 07:13:32;;;;;;;3.05;0.52;;;3.90;99.90;;;;;;5037476;28;20127;-63
2022/02/25 07:16:00;;;;;;;15.88;1.60;;;3.90;99.90;;;;;;5058555;28;20061;-54
2022/02/25 07:18:26;;;;;;;7.00;1.38;;;3.90;99.90;;;;;;5065749;28;20052;-56
2022/02/25 07:20:52;;;;;;;2.03;0.63;;;3.90;99.90;;;;;;5064482;28;20075;-55
2022/02/25 07:23:17;;;;;;;10.38;1.30;;;3.90;99.90;;;;;;5066207;28;20036;-64
2022/02/25 07:25:43;;;;;;;15.30;1.77;;;4.00;99.90;;;;;;5064516;28;20510;-53
2022/02/25 07:28:09;;;;;;;14.90;2.70;;;4.00;99.90;;;;;;5065778;28;20044;-55
2022/02/25 07:30:36;;;;;;;4.00;0.22;;;4.00;99.90;;;;;;5064033;28;20123;-54
2022/02/25 07:33:02;;;;;;;4.65;1.05;;;4.00;99.90;;;;;;5065163;28;20070;-55
2022/02/25 07:35:29;;;;;;;2.67;0.70;;;4.00;99.90;;;;;;5046258;28;20053;-53
2022/02/25 07:37:55;;;;;;;7.32;1.55;;;4.00;99.90;;;;;;5046166;28;20410;-56
2022/02/25 07:40:21;;;;;;;3.80;1.27;;;4.00;99.90;;;;;;5064511;28;20036;-56
2022/02/25 07:42:47;;;;;;;1.27;0.52;;;4.00;99.90;;;;;;5027890;28;20142;-54
2022/02/25 07:45:13;;;;;;;6.95;1.80;;;4.10;99.90;;;;;;5069262;28;20095;-58
2022/02/25 07:47:40;;;;;;;7.57;1.60;;;4.20;99.90;;;;;;5066391;28;20497;-55
2022/02/25 07:50:07;;;;;;;0.65;0.40;;;4.20;99.90;;;;;;5067835;28;20049;-56
2022/02/25 07:52:32;;;;;;;14.10;0.82;;;4.30;99.90;;;;;;5068612;28;20106;-60
2022/02/25 07:54:58;;;;;;;8.07;1.27;;;4.30;99.90;;;;;;5050262;28;20052;-55
2022/02/25 07:57:24;;;;;;;5.07;1.02;;;4.40;99.90;;;;;;5069176;28;20040;-64
2022/02/25 07:59:50;;;;;;;10.63;1.33;;;4.30;99.90;;;;;;5050023;28;20052;-63
2022/02/25 08:02:16;;;;;;;17.27;2.22;;;4.30;99.90;;;;;;5068101;28;20620;-54
2022/02/25 08:04:42;;;;;;;14.02;2.53;;;4.40;99.90;;;;;;5049556;28;20045;-52
2022/02/25 08:07:07;;;;;;;4.32;0.85;;;4.50;99.90;;;;;;5050303;28;20044;-58
2022/02/25 08:09:34;;;;;;;7.60;1.40;;;4.60;99.90;;;;;;5047056;28;20029;-54
2022/02/25 08:11:59;;;;;;;9.82;1.85;;;4.70;99.90;;;;;;5066816;28;20048;-59
2022/02/25 08:14:25;;;;;;;10.23;1.45;;;4.80;99.90;;;;;;5068551;28;20088;-58
2022/02/25 08:16:51;;;;;;;12.85;2.30;;;4.90;99.90;;;;;;5044517;28;20495;-59
2022/02/25 08:19:17;;;;;;;7.93;1.27;;;5.10;99.90;;;;;;5064540;28;20057;-64
2022/02/25 08:21:43;;;;;;;24.63;2.92;;;5.20;99.90;;;;;;5065780;28;20040;-57
2022/02/25 08:24:09;;;;;;;2.90;0.40;;;5.40;99.90;;;;;;5067756;28;20078;-63
2022/02/25 08:26:35;;;;;;;19.35;2.17;;;5.60;99.90;;;;;;5066710;28;20041;-60
2022/02/25 08:29:01;;;;;;;14.57;1.83;;;5.90;99.90;;;;;;5067602;28;20055;-60
2022/02/25 08:31:27;;;;;;;15.13;2.30;;;6.00;99.90;;;;;;5067844;28;20036;-59
2022/02/25 08:33:59;;;;;;;12.88;2.03;;;6.20;99.90;;;;;;5065699;28;20482;-56
2022/02/25 08:36:24;;;;;;;18.63;2.33;;;6.30;99.90;;;;;;5032544;28;20059;-59
2022/02/25 08:38:50;;;;;;;11.40;1.95;;;6.30;99.90;;;;;;5031702;28;20047;-57
2022/02/25 08:41:16;;;;;;;2.85;0.90;;;6.20;99.90;;;;;;5043709;28;20060;-64
2022/02/25 08:43:42;;;;;;;11.50;1.80;;;6.10;99.90;;;;;;5063640;28;20241;-60
2022/02/25 08:46:09;;;;;;;11.43;1.42;;;6.00;99.90;;;;;;5047160;28;20518;-66
2022/02/25 08:48:35;;;;;;;1.85;0.77;;;5.80;99.90;;;;;;5046894;28;20045;-66
2022/02/25 08:51:01;;;;;;;13.25;2.00;;;5.70;99.90;;;;;;5048327;28;20043;-61
2022/02/25 08:53:27;;;;;;;8.82;1.30;;;5.60;99.90;;;;;;5066369;28;20032;-56
2022/02/25 08:55:53;;;;;;;8.98;1.35;;;5.60;99.90;;;;;;5061994;28;20043;-59
2022/02/25 08:58:20;;;;;;;9.50;1.45;;;5.60;99.90;;;;;;5032831;28;20045;-61
2022/02/25 09:00:46;;;;;;;19.70;2.53;;;5.60;99.90;;;;;;5044810;28;20124;-59
2022/02/25 09:03:12;;;;;;;8.75;1.92;;;5.60;99.90;;;;;;5013602;28;20131;-55
2022/02/25 09:05:38;;;;;;;9.15;1.75;;;5.60;99.90;;;;;;5047384;28;20124;-56
2022/02/25 09:08:05;;;;;;;4.88;1.02;;;5.60;99.90;;;;;;5066490;28;20065;-61
2022/02/25 09:10:31;;;;;;;5.40;1.23;;;5.60;99.90;;;;;;5031778;28;20121;-59
2022/02/25 09:12:57;;;;;;;2.38;1.30;;;5.60;99.90;;;;;;5065314;28;20043;-64
2022/02/25 09:15:26;;;;;;;10.23;1.52;;;5.50;99.90;;;;;;5047238;28;20041;-55
2022/02/25 09:18:01;;;;;;;4.13;0.88;;;5.40;99.90;;;;;;5047276;28;20060;-58
2022/02/25 09:20:28;;;;;;;3.83;0.85;;;5.30;99.90;;;;;;5014892;28;20499;-58
2022/02/25 09:22:54;;;;;;;14.30;2.78;;;5.30;99.90;;;;;;5063555;28;20041;-59
2022/02/25 09:25:20;;;;;;;5.53;0.82;;;5.40;99.90;;;;;;5030201;28;20217;-58
2022/02/25 09:27:47;;;;;;;7.88;1.40;;;5.70;99.90;;;;;;5031288;28;20043;-57
2022/02/25 09:30:14;;;;;;;11.68;2.10;;;6.00;99.90;;;;;;5066270;28;20142;-59
2022/02/25 09:32:41;;;;;;;2.80;0.68;;;6.20;99.90;;;;;;5061082;28;20040;-67
2022/02/25 09:35:08;;;;;;;17.38;2.70;;;6.40;99.90;;;;;;5064647;28;20033;-59
2022/02/25 09:37:35;;;;;;;6.60;0.75;;;6.60;99.90;;;;;;5049199;28;20044;-62
2022/02/25 09:40:12;;;;;;;3.67;1.30;;;6.70;99.90;;;;;;5066148;28;20419;-61
2022/02/25 09:42:40;;;;;;;3.28;0.90;;;6.70;99.90;;;;;;5056664;28;20064;-58
2022/02/25 09:45:09;;;;;;;2.65;0.90;;;6.60;99.90;;;;;;5048837;28;20037;-60
2022/02/25 09:47:35;;;;;;;16.45;2.80;;;6.40;99.90;;;;;;5064948;28;20113;-57
2022/02/25 09:50:07;;;;;;;21.08;4.45;;;6.20;99.90;;;;;;5065744;28;20127;-66
2022/02/25 09:52:35;;;;;;;27.08;5.07;;;6.00;99.90;;;;;;5065624;28;20120;-65
2022/02/25 09:55:05;;;;;;;22.25;4.82;;;5.70;99.90;;;;;;5048031;28;20057;-58
2022/02/25 09:57:31;;;;;;;22.75;5.22;;;5.40;99.90;;;;;;5065522;28;20044;-60
2022/02/25 09:59:57;;;;;;;21.05;4.65;;;5.30;99.90;;;;;;5065242;28;20040;-66
2022/02/25 10:02:42;;;;;;;20.10;3.42;;;5.30;99.90;;;;;;5033794;28;20049;-56
2022/02/25 10:05:20;;;;;;;19.42;3.00;;;5.30;99.90;;;;;;5042418;28;20048;-63
2022/02/25 10:07:46;;;;;;;9.98;3.13;;;5.30;99.90;;;;;;5048375;28;20041;-55
2022/02/25 10:10:15;;;;;;;8.60;1.92;;;5.30;99.90;;;;;;5064722;28;20332;-58
2022/02/25 10:13:00;;;;;;;14.70;2.72;;;5.30;99.90;;;;;;5065038;28;20060;-65
2022/02/25 10:15:31;;;;;;;5.22;1.10;;;5.40;99.90;;;;;;5048224;28;20052;-58
2022/02/25 10:18:01;;;;;;;14.80;3.10;;;5.50;99.90;;;;;;5064520;28;20055;-67
2022/02/25 10:20:27;;;;;;;19.55;3.25;;;5.50;99.90;;;;;;5044162;28;20040;-61
2022/02/25 10:22:53;;;;;;;19.00;3.10;;;5.60;99.90;;;;;;5062302;28;20036;-56
2022/02/25 10:25:21;;;;;;;20.73;3.75;;;5.70;99.90;;;;;;5045481;28;20103;-57
2022/02/25 10:27:47;;;;;;;18.75;2.58;;;5.80;99.90;;;;;;4992264;28;20128;-57
2022/02/25 10:30:19;;;;;;;17.85;4.10;;;5.80;99.90;;;;;;5066178;28;20114;-58
2022/02/25 10:32:50;;;;;;;21.95;4.63;;;5.80;99.90;;;;;;5047228;28;20048;-65
2022/02/25 10:35:28;;;;;;;31.48;4.75;;;5.80;99.90;;;;;;5065864;28;20040;-64
2022/02/25 10:37:56;;;;;;;34.53;6.07;;;5.90;99.90;;;;;;5064630;28;20048;-57
2022/02/25 10:40:23;;;;;;;29.70;5.55;;;5.90;99.90;;;;;;5064888;28;20036;-61
2022/02/25 10:42:49;;;;;;;41.38;6.40;;;6.10;99.90;;;;;;5044544;28;20064;-57
2022/02/25 10:45:32;;;;;;;30.88;6.00;;;6.40;99.90;;;;;;5043827;28;20033;-54
2022/02/25 10:48:01;;;;;;;25.80;4.65;;;6.60;99.90;;;;;;5064259;28;20060;-60
2022/02/25 10:50:27;;;;;;;37.90;6.25;;;6.50;99.90;;;;;;5056090;28;20115;-56
2022/02/25 10:52:54;;;;;;;30.27;5.72;;;6.50;99.90;;;;;;5064598;28;20052;-61
2022/02/25 10:55:27;;;;;;;28.73;5.28;;;6.40;99.90;;;;;;5065930;28;20049;-61
2022/02/25 10:57:55;;;;;;;29.20;4.35;;;6.40;99.90;;;;;;5062924;28;20060;-65
2022/02/25 11:00:22;;;;;;;33.67;5.20;;;6.30;99.90;;;;;;5047964;28;20045;-63
2022/02/25 11:02:51;;;;;;;34.00;7.32;;;6.40;99.90;;;;;;5046940;28;20063;-56
2022/02/25 11:05:19;;;;;;;39.17;7.72;;;6.60;99.90;;;;;;5064716;28;20635;-59
2022/02/25 11:07:51;;;;;;;29.85;6.07;;;6.80;99.90;;;;;;5065728;28;20044;-62
2022/02/25 11:10:24;;;;;;;28.95;6.43;;;7.00;99.90;;;;;;5043408;28;20130;-53
2022/02/25 11:12:51;;;;;;;33.05;6.65;;;7.30;99.90;;;;;;5064614;28;20048;-55
2022/02/25 11:15:23;;;;;;;34.58;7.43;;;7.50;99.90;;;;;;5064647;28;20056;-64
2022/02/25 11:17:50;;;;;;;33.85;4.95;;;7.70;99.90;;;;;;5049894;28;20129;-62
2022/02/25 11:20:22;;;;;;;13.27;2.10;;;7.80;99.90;;;;;;5048144;28;20174;-53
2022/02/25 11:22:52;;;;;;;26.80;3.13;;;6.60;99.90;;;;;;5047174;28;20510;-60
2022/02/25 11:25:18;;;;;;;;;;;5.60;99.90;;;;;;5070665;28;20060;-57
2022/02/25 11:27:47;;;;;;;21.70;11.02;;;5.00;99.90;;;;;;5063231;28;19989;-61
2022/02/25 11:30:26;;;;;;;19.08;8.18;;;4.90;99.90;;;;;;5066985;28;20041;-61
2022/02/25 11:33:13;;;;;;;16.70;5.88;;;4.90;99.90;;;;;;5048752;28;20049;-57
2022/02/25 11:36:00;;;;;;;15.55;3.58;;;5.00;99.90;;;;;;5060688;28;20036;-60
2022/02/25 11:38:34;;;;;;;15.35;2.70;;;5.20;99.90;;;;;;5032407;28;20080;-61
2022/02/25 11:41:01;;;;;;;9.10;2.20;;;5.40;99.90;;;;;;5042966;28;20058;-57
2022/02/25 11:43:52;;;;;;;12.55;3.22;;;5.50;99.90;;;;;;5033202;28;20066;-59
2022/02/25 11:46:22;;;;;;;18.77;3.58;;;5.60;99.90;;;;;;5049490;28;20044;-59
2022/02/25 11:48:56;;;;;;;13.00;2.85;;;5.70;99.90;;;;;;5067420;28;20128;-62
2022/02/25 11:51:47;;;;;;;20.83;4.30;;;5.80;99.90;;;;;;5048471;28;20047;-57
2022/02/25 11:54:28;;;;;;;18.77;4.28;;;5.80;99.90;;;;;;5043448;28;20218;-53
2022/02/25 11:56:59;;;;;;;24.65;7.55;;;5.70;99.90;;;;;;5065684;28;20045;-62
2022/02/25 11:59:31;;;;;;;39.17;10.10;;;5.70;99.90;;;;;;5068019;28;20376;-66
2022/02/25 12:02:13;;;;;;;32.83;6.57;;;5.80;99.90;;;;;;5048741;28;20499;-63
2022/02/25 12:04:47;;;;;;;32.28;5.43;;;5.90;99.90;;;;;;5069082;28;20098;-61
2022/02/25 12:07:30;;;;;;;33.38;5.13;;;6.00;99.90;;;;;;5048893;28;20055;-66
2022/02/25 12:10:00;;;;;;;37.90;6.15;;;6.10;99.90;;;;;;5050030;28;20051;-61
2022/02/25 12:12:29;;;;;;;30.08;5.20;;;6.30;99.90;;;;;;5047946;28;20056;-57
2022/02/25 12:15:07;;;;;;;30.95;5.72;;;6.60;99.90;;;;;;5049640;28;20052;-62
2022/02/25 12:17:42;;;;;;;28.35;6.68;;;6.90;99.90;;;;;;5047066;28;20120;-67
2022/02/25 12:20:16;;;;;;;26.20;6.88;;;6.90;99.90;;;;;;5032468;28;20064;-58
2022/02/25 12:23:08;;;;;;;30.95;6.38;;;6.40;99.90;;;;;;5067690;28;20383;-63
2022/02/25 12:25:40;;;;;;;25.85;3.85;;;4.80;99.90;;;;;;5050569;28;20139;-56
2022/02/25 12:28:30;;;;;;;41.50;16.25;;;4.30;99.90;;;;;;5031632;28;20036;-58
2022/02/25 12:31:19;;;;;;;44.47;21.15;;;4.20;99.90;;;;;;5066807;28;20178;-57
2022/02/25 12:33:45;;;;;;;37.58;20.83;;;4.20;99.90;;;;;;5047698;28;20536;-55
2022/02/25 12:36:29;;;;;;;35.17;19.70;;;4.10;99.90;;;;;;5066788;28;20041;-56
2022/02/25 12:39:25;;;;;;;36.35;17.98;;;4.20;99.90;;;;;;5049946;28;20048;-58
2022/02/25 12:41:56;;;;;;;24.63;10.02;;;4.30;99.90;;;;;;5073280;28;20045;-54
2022/02/25 12:44:34;;;;;;;28.65;12.07;;;4.30;99.90;;;;;;5048393;28;20048;-59
2022/02/25 12:47:08;;;;;;;30.15;13.65;;;4.40;99.90;;;;;;5068061;28;20094;-57
2022/02/25 12:49:38;;;;;;;28.67;12.25;;;4.50;99.90;;;;;;5048433;28;20100;-57
2022/02/25 12:52:06;;;;;;;42.72;20.42;;;4.70;99.90;;;;;;5044084;28;20155;-60
2022/02/25 12:54:34;;;;;;;37.40;12.68;;;4.80;99.90;;;;;;5046024;28;20136;-61
2022/02/25 12:57:02;;;;;;;29.75;9.60;;;5.00;99.90;;;;;;5066071;28;20032;-60
2022/02/25 12:59:33;;;;;;;46.05;14.13;;;5.10;99.90;;;;;;5065629;28;20056;-66